Time;durP1;ratioP1;P1;durP2;ratioP2;P2;SDS_P1;SDS_P2;PMS_P1;PMS_P2;Temp;Humidity;BMP_temperature;BMP_pressure;BME280_temperature;BME280_humidity;BME280_pressure;Samples;Min_cycle;Max_cycle;Signal;HPM_P1;HPM_P2
2021/12/10 00:00:33;;;;;;;7.15;3.72;;;18.90;99.90;;;;;;4192705;28;20227;-71
2021/12/10 00:02:35;;;;;;;5.60;3.72;;;18.90;99.90;;;;;;4194550;28;20219;-71
2021/12/10 00:04:39;;;;;;;5.35;3.50;;;18.90;99.90;;;;;;4194246;28;20276;-71
2021/12/10 00:06:45;;;;;;;5.35;3.40;;;18.90;99.90;;;;;;4194332;28;20244;-71
2021/12/10 00:08:54;;;;;;;6.75;3.88;;;18.90;99.90;;;;;;4193883;28;20718;-71
2021/12/10 00:11:00;;;;;;;6.28;3.30;;;18.90;99.90;;;;;;4194043;28;20260;-71
2021/12/10 00:13:05;;;;;;;4.95;3.00;;;18.90;99.90;;;;;;4194251;28;20241;-72
2021/12/10 00:15:09;;;;;;;6.65;3.47;;;18.90;99.90;;;;;;4194562;28;20289;-72
2021/12/10 00:17:14;;;;;;;7.22;3.95;;;18.90;99.90;;;;;;4187968;28;20227;-72
2021/12/10 00:19:26;;;;;;;5.63;3.25;;;18.90;99.90;;;;;;4191235;28;20556;-71
2021/12/10 00:21:29;;;;;;;4.45;2.90;;;18.80;99.90;;;;;;4191415;28;20223;-71
2021/12/10 00:23:33;;;;;;;7.15;3.60;;;18.90;99.90;;;;;;4190717;28;20211;-72
2021/12/10 00:25:39;;;;;;;5.28;3.20;;;18.80;99.90;;;;;;4191279;28;20222;-72
2021/12/10 00:27:42;;;;;;;6.05;3.55;;;18.80;99.90;;;;;;4191956;28;20261;-72
2021/12/10 00:29:49;;;;;;;5.47;3.63;;;18.80;99.90;;;;;;4191962;28;20238;-72
2021/12/10 00:31:56;;;;;;;5.22;3.08;;;18.80;99.90;;;;;;4191822;28;20223;-71
2021/12/10 00:34:01;;;;;;;4.75;3.47;;;18.80;99.90;;;;;;4190569;28;20269;-72
2021/12/10 00:36:05;;;;;;;7.53;3.65;;;18.80;99.90;;;;;;4190240;28;20277;-72
2021/12/10 00:38:08;;;;;;;5.10;3.33;;;18.80;99.90;;;;;;4191255;28;20219;-72
2021/12/10 00:40:13;;;;;;;5.65;3.45;;;18.80;99.90;;;;;;4191280;28;20265;-72
2021/12/10 00:42:20;;;;;;;6.82;3.60;;;18.80;99.90;;;;;;4187737;28;20207;-71
2021/12/10 00:44:23;;;;;;;4.18;2.90;;;18.80;99.90;;;;;;4190512;28;20231;-72
2021/12/10 00:46:27;;;;;;;4.40;2.78;;;18.80;99.90;;;;;;4191791;28;20285;-71
2021/12/10 00:48:29;;;;;;;6.45;2.95;;;18.80;99.90;;;;;;4192503;28;20219;-72
2021/12/10 00:50:36;;;;;;;5.07;3.13;;;18.80;99.90;;;;;;4191635;28;20664;-72
2021/12/10 00:52:38;;;;;;;5.70;3.05;;;18.80;99.90;;;;;;4190272;28;20215;-72
2021/12/10 00:54:41;;;;;;;5.57;3.35;;;18.80;99.90;;;;;;4191150;28;20213;-72
2021/12/10 00:56:44;;;;;;;6.38;3.47;;;18.70;99.90;;;;;;4190160;28;20235;-72
2021/12/10 00:58:47;;;;;;;4.45;3.08;;;18.70;99.90;;;;;;4191148;28;20307;-71
2021/12/10 01:00:52;;;;;;;5.50;3.10;;;18.70;99.90;;;;;;4189505;28;20223;-72
2021/12/10 01:02:56;;;;;;;4.20;2.80;;;18.80;99.90;;;;;;4191532;28;20641;-72
2021/12/10 01:05:00;;;;;;;4.85;3.17;;;18.70;99.90;;;;;;4190779;28;20276;-71
2021/12/10 01:07:05;;;;;;;5.65;3.17;;;18.70;99.90;;;;;;4191153;28;20260;-72
2021/12/10 01:09:11;;;;;;;6.15;3.50;;;18.80;99.90;;;;;;4190968;28;20695;-72
2021/12/10 01:11:19;;;;;;;6.57;3.25;;;18.70;99.90;;;;;;4191033;28;20265;-71
2021/12/10 01:13:27;;;;;;;5.43;3.15;;;18.70;99.90;;;;;;4190803;28;20273;-72
2021/12/10 01:15:53;;;;;;;4.63;3.05;;;18.70;99.90;;;;;;4190375;28;20741;-72
2021/12/10 01:25:13;;;;;;;4.97;3.08;;;18.70;99.90;;;;;;4193877;28;20223;-71
2021/12/10 01:27:27;;;;;;;5.40;2.90;;;18.70;99.90;;;;;;4194284;28;20237;-71
2021/12/10 01:29:34;;;;;;;5.85;3.17;;;18.60;99.90;;;;;;4193398;28;20292;-71
2021/12/10 01:31:36;;;;;;;5.90;3.20;;;18.60;99.90;;;;;;4190086;28;20216;-71
2021/12/10 01:33:41;;;;;;;5.85;3.25;;;18.70;99.90;;;;;;4192377;28;20741;-72
2021/12/10 01:35:48;;;;;;;5.13;3.30;;;18.60;99.90;;;;;;4190889;28;20252;-71
2021/12/10 01:37:51;;;;;;;3.70;2.35;;;18.70;99.90;;;;;;4192971;28;20627;-71
2021/12/10 01:39:55;;;;;;;4.38;2.85;;;18.60;99.90;;;;;;4196938;28;20264;-71
2021/12/10 01:42:12;;;;;;;4.70;2.58;;;18.60;99.90;;;;;;4196367;28;20284;-72
2021/12/10 01:44:16;;;;;;;4.47;2.70;;;18.60;99.90;;;;;;4196699;28;20214;-71
2021/12/10 01:46:25;;;;;;;5.32;2.70;;;18.60;99.90;;;;;;4196295;28;20277;-71
2021/12/10 01:48:32;;;;;;;4.32;2.65;;;18.60;99.90;;;;;;4196265;28;20214;-71
2021/12/10 01:50:37;;;;;;;5.22;2.85;;;18.60;99.90;;;;;;4196484;28;20277;-71
2021/12/10 01:52:39;;;;;;;5.60;2.92;;;18.60;99.90;;;;;;4193881;28;20227;-71
2021/12/10 01:54:44;;;;;;;4.40;2.80;;;18.60;99.90;;;;;;4192973;28;20273;-71
2021/12/10 01:56:49;;;;;;;5.82;2.60;;;18.60;99.90;;;;;;4194295;28;20288;-71
2021/12/10 01:58:52;;;;;;;4.65;2.45;;;18.60;99.90;;;;;;4196060;28;20215;-72
2021/12/10 02:00:59;;;;;;;3.55;2.70;;;18.60;99.90;;;;;;4196442;28;20374;-72
2021/12/10 02:03:01;;;;;;;4.88;2.60;;;18.60;99.90;;;;;;4196145;28;20223;-71
2021/12/10 02:05:07;;;;;;;4.65;2.70;;;18.60;99.90;;;;;;4193925;28;20265;-71
2021/12/10 02:07:13;;;;;;;5.28;2.80;;;18.60;99.90;;;;;;4196399;28;20275;-71
2021/12/10 02:09:16;;;;;;;4.93;2.90;;;18.50;99.90;;;;;;4194509;28;20222;-71
2021/12/10 02:11:19;;;;;;;4.22;2.65;;;18.60;99.90;;;;;;4196175;28;20219;-71
2021/12/10 02:13:22;;;;;;;4.25;2.50;;;18.60;99.90;;;;;;4196179;28;20227;-72
2021/12/10 02:15:27;;;;;;;5.85;2.88;;;18.60;99.90;;;;;;4196037;28;20297;-72
2021/12/10 02:17:33;;;;;;;5.68;2.78;;;18.60;99.90;;;;;;4196321;28;20239;-72
2021/12/10 02:19:36;;;;;;;4.20;2.75;;;18.60;99.90;;;;;;4195701;28;20215;-72
2021/12/10 02:21:40;;;;;;;4.93;2.53;;;18.60;99.90;;;;;;4194268;28;20268;-72
2021/12/10 02:23:48;;;;;;;4.68;2.28;;;18.50;99.90;;;;;;4195862;28;20277;-73
2021/12/10 02:25:51;;;;;;;4.68;2.72;;;18.50;99.90;;;;;;4194117;28;20275;-72
2021/12/10 02:27:53;;;;;;;3.58;2.00;;;18.60;99.90;;;;;;4196239;28;20215;-72
2021/12/10 02:29:56;;;;;;;3.97;2.63;;;18.60;99.90;;;;;;4195212;28;20269;-72
2021/12/10 02:31:58;;;;;;;5.75;2.65;;;18.50;99.90;;;;;;4196016;28;20215;-72
2021/12/10 02:34:02;;;;;;;4.05;2.15;;;18.50;99.90;;;;;;4195876;28;20215;-72
2021/12/10 02:36:10;;;;;;;4.53;2.30;;;18.50;99.90;;;;;;4192667;28;20265;-71
2021/12/10 02:38:18;;;;;;;3.03;1.98;;;18.50;99.90;;;;;;4196216;28;20222;-72
2021/12/10 02:40:24;;;;;;;3.97;2.42;;;18.50;99.90;;;;;;4195399;28;20687;-71
2021/12/10 02:42:26;;;;;;;4.35;2.30;;;18.50;99.90;;;;;;4193721;28;20230;-71
2021/12/10 02:44:31;;;;;;;5.00;2.40;;;18.50;99.90;;;;;;4196329;28;20293;-71
2021/12/10 02:46:34;;;;;;;4.18;2.33;;;18.50;99.90;;;;;;4193984;28;20214;-71
2021/12/10 02:48:37;;;;;;;3.72;2.10;;;18.50;99.90;;;;;;4195587;28;20260;-71
2021/12/10 02:50:39;;;;;;;4.35;2.40;;;18.50;99.90;;;;;;4195331;28;20219;-71
2021/12/10 02:52:42;;;;;;;4.50;2.35;;;18.50;99.90;;;;;;4193253;28;20227;-71
2021/12/10 02:54:45;;;;;;;4.10;2.20;;;18.50;99.90;;;;;;4194511;28;20276;-71
2021/12/10 02:56:48;;;;;;;3.63;2.13;;;18.40;99.90;;;;;;4194956;28;20240;-71
2021/12/10 02:58:54;;;;;;;3.53;2.17;;;18.50;99.90;;;;;;4195257;28;20223;-71
2021/12/10 03:01:00;;;;;;;4.47;2.10;;;18.50;99.90;;;;;;4195268;28;20215;-72
2021/12/10 03:03:03;;;;;;;3.88;2.40;;;18.40;99.90;;;;;;4195583;28;20273;-71
2021/12/10 03:05:08;;;;;;;2.72;1.85;;;18.50;99.90;;;;;;4194000;28;20563;-71
2021/12/10 03:07:14;;;;;;;3.53;1.92;;;18.40;99.90;;;;;;4195060;28;20223;-71
2021/12/10 03:09:19;;;;;;;3.42;2.15;;;18.50;99.90;;;;;;4195309;28;20219;-71
2021/12/10 03:11:25;;;;;;;3.45;2.00;;;18.40;99.90;;;;;;4194603;28;20241;-71
2021/12/10 03:13:28;;;;;;;4.63;2.15;;;18.40;99.90;;;;;;4194909;28;20676;-71
2021/12/10 03:15:31;;;;;;;3.72;2.20;;;18.40;99.90;;;;;;4194621;28;20219;-72
2021/12/10 03:17:34;;;;;;;2.63;1.85;;;18.40;99.90;;;;;;4194588;28;20231;-71
2021/12/10 03:19:37;;;;;;;3.80;2.10;;;18.40;99.90;;;;;;4190768;28;20211;-71
2021/12/10 03:21:44;;;;;;;3.20;1.90;;;18.40;99.90;;;;;;4194982;28;20276;-71
2021/12/10 03:23:48;;;;;;;2.40;1.83;;;18.40;99.90;;;;;;4194855;28;20227;-71
2021/12/10 03:25:51;;;;;;;3.85;2.10;;;18.40;99.90;;;;;;4194879;28;20656;-72
2021/12/10 03:27:55;;;;;;;3.58;2.17;;;18.40;99.90;;;;;;4194988;28;20312;-71
2021/12/10 03:29:57;;;;;;;3.70;1.90;;;18.30;99.90;;;;;;4194798;28;20239;-71
2021/12/10 03:32:02;;;;;;;2.88;1.88;;;18.30;99.90;;;;;;4195331;28;20974;-71
2021/12/10 03:34:05;;;;;;;3.20;2.10;;;18.30;99.90;;;;;;4193188;28;20630;-71
2021/12/10 03:36:08;;;;;;;1.88;1.65;;;18.30;99.90;;;;;;4194651;28;20252;-71
2021/12/10 03:38:15;;;;;;;3.17;1.83;;;18.30;99.90;;;;;;4194635;28;20733;-71
2021/12/10 03:40:19;;;;;;;3.22;1.92;;;18.30;99.90;;;;;;4194775;28;20634;-72
2021/12/10 03:42:23;;;;;;;4.40;2.03;;;18.30;99.90;;;;;;4190116;28;20219;-71
2021/12/10 03:44:28;;;;;;;3.05;1.95;;;18.30;99.90;;;;;;4193548;28;20223;-71
2021/12/10 03:46:30;;;;;;;4.18;2.20;;;18.30;99.90;;;;;;4194784;28;20219;-71
2021/12/10 03:48:35;;;;;;;2.90;1.88;;;18.30;99.90;;;;;;4194839;28;20241;-72
2021/12/10 03:50:38;;;;;;;3.55;2.00;;;18.30;99.90;;;;;;4194387;28;20223;-71
2021/12/10 03:52:41;;;;;;;3.92;2.00;;;18.30;99.90;;;;;;4194899;28;20276;-72
2021/12/10 03:54:44;;;;;;;2.95;2.03;;;18.30;99.90;;;;;;4194482;28;20227;-71
2021/12/10 03:56:48;;;;;;;4.57;2.10;;;18.30;99.90;;;;;;4194301;28;20249;-71
2021/12/10 03:58:52;;;;;;;2.50;1.80;;;18.30;99.90;;;;;;4192323;28;20623;-72
2021/12/10 04:00:57;;;;;;;3.33;1.75;;;18.30;99.90;;;;;;4194155;28;20280;-71
2021/12/10 04:02:59;;;;;;;3.28;1.70;;;18.20;99.90;;;;;;4194764;28;20246;-72
2021/12/10 04:05:02;;;;;;;2.38;1.55;;;18.20;99.90;;;;;;4194538;28;20359;-72
2021/12/10 04:07:08;;;;;;;3.03;1.73;;;18.20;99.90;;;;;;4194113;28;20226;-71
2021/12/10 04:09:10;;;;;;;3.63;1.80;;;18.20;99.90;;;;;;4194914;28;20223;-71
2021/12/10 04:11:15;;;;;;;1.83;1.58;;;18.20;99.90;;;;;;4193845;28;20748;-72
2021/12/10 04:13:18;;;;;;;2.47;1.67;;;18.20;99.90;;;;;;4194448;28;20245;-71
2021/12/10 04:15:23;;;;;;;9.38;2.20;;;18.20;99.90;;;;;;4194274;28;20218;-71
2021/12/10 04:17:27;;;;;;;2.58;1.70;;;18.20;99.90;;;;;;4193624;28;20239;-72
2021/12/10 04:19:31;;;;;;;2.97;1.60;;;18.20;99.90;;;;;;4194255;28;20211;-71
2021/12/10 04:21:39;;;;;;;2.60;1.50;;;18.20;99.90;;;;;;4194065;28;20752;-72
2021/12/10 04:23:42;;;;;;;2.70;1.80;;;18.20;99.90;;;;;;4192031;28;20618;-71
2021/12/10 04:25:45;;;;;;;2.92;1.75;;;18.20;99.90;;;;;;4193985;28;20234;-71
2021/12/10 04:27:49;;;;;;;3.10;1.80;;;18.20;99.90;;;;;;4194202;28;20218;-71
2021/12/10 04:29:56;;;;;;;2.33;1.67;;;18.20;99.90;;;;;;4194487;28;20246;-71
2021/12/10 04:31:59;;;;;;;3.47;1.90;;;18.20;99.90;;;;;;4194243;28;20218;-71
2021/12/10 04:34:04;;;;;;;2.13;1.50;;;18.20;99.90;;;;;;4192052;28;20258;-72
2021/12/10 04:36:08;;;;;;;3.38;1.60;;;18.20;99.90;;;;;;4194474;28;20675;-71
2021/12/10 04:38:10;;;;;;;2.20;1.48;;;18.20;99.90;;;;;;4193733;28;20706;-71
2021/12/10 04:40:17;;;;;;;2.22;1.48;;;18.20;99.90;;;;;;4194550;28;20215;-71
2021/12/10 04:42:21;;;;;;;3.17;1.50;;;18.20;99.90;;;;;;4191467;28;20273;-71
2021/12/10 04:44:24;;;;;;;2.90;1.63;;;18.10;99.90;;;;;;4194023;28;20741;-71
2021/12/10 04:46:27;;;;;;;3.42;1.50;;;18.10;99.90;;;;;;4193957;28;20631;-71
2021/12/10 04:48:31;;;;;;;2.50;1.40;;;18.10;99.90;;;;;;4193831;28;20614;-71
2021/12/10 04:50:34;;;;;;;2.80;1.48;;;18.10;99.90;;;;;;4194660;28;20219;-71
2021/12/10 04:52:37;;;;;;;3.15;1.60;;;18.10;99.90;;;;;;4194182;28;20227;-71
2021/12/10 04:54:39;;;;;;;2.58;1.50;;;18.10;99.90;;;;;;4194084;28;20231;-71
2021/12/10 04:56:43;;;;;;;2.58;1.80;;;18.10;99.90;;;;;;4194287;28;20219;-71
2021/12/10 04:58:45;;;;;;;2.25;1.40;;;18.10;99.90;;;;;;4192053;28;20250;-71
2021/12/10 05:00:49;;;;;;;2.90;1.80;;;18.10;99.90;;;;;;4193494;28;20215;-71
2021/12/10 05:02:51;;;;;;;2.03;1.42;;;18.10;99.90;;;;;;4193465;28;20223;-71
2021/12/10 05:04:57;;;;;;;2.78;1.38;;;18.10;99.90;;;;;;4193483;28;20222;-71
2021/12/10 05:07:02;;;;;;;2.38;1.20;;;18.10;99.90;;;;;;4189418;28;20211;-71
2021/12/10 05:09:08;;;;;;;3.00;1.60;;;18.10;99.90;;;;;;4193671;28;20715;-71
2021/12/10 05:11:11;;;;;;;2.17;1.25;;;18.10;99.90;;;;;;4193134;28;20207;-71
2021/12/10 05:13:14;;;;;;;2.67;1.42;;;18.10;99.90;;;;;;4196459;28;20231;-71
2021/12/10 05:15:20;;;;;;;2.00;1.40;;;18.10;99.90;;;;;;4193556;28;20227;-71
2021/12/10 05:17:26;;;;;;;2.60;1.67;;;18.10;99.90;;;;;;4195983;28;20227;-71
2021/12/10 05:19:28;;;;;;;2.65;1.58;;;18.10;99.90;;;;;;4196501;28;20235;-71
2021/12/10 05:21:33;;;;;;;1.55;1.23;;;18.10;99.90;;;;;;4196905;28;20215;-71
2021/12/10 05:23:38;;;;;;;2.88;1.50;;;18.00;99.90;;;;;;4197018;28;20663;-71
2021/12/10 05:25:41;;;;;;;2.25;1.52;;;18.00;99.90;;;;;;4196325;28;20231;-71
2021/12/10 05:27:45;;;;;;;3.15;1.50;;;18.00;99.90;;;;;;4196869;28;20270;-71
2021/12/10 05:29:47;;;;;;;3.17;1.77;;;18.00;99.90;;;;;;4191185;28;20285;-71
2021/12/10 05:31:50;;;;;;;2.00;1.48;;;18.10;99.90;;;;;;4193057;28;20264;-71
2021/12/10 05:33:52;;;;;;;2.25;1.38;;;18.00;99.90;;;;;;4195880;28;20265;-71
2021/12/10 05:35:57;;;;;;;3.25;1.15;;;18.00;99.90;;;;;;4196990;28;20272;-71
2021/12/10 05:37:59;;;;;;;1.95;1.40;;;18.00;99.90;;;;;;4196847;28;20238;-71
2021/12/10 05:40:06;;;;;;;2.22;1.20;;;18.10;99.90;;;;;;4196512;28;20231;-71
2021/12/10 05:42:09;;;;;;;2.25;1.30;;;18.00;99.90;;;;;;4196352;28;20359;-71
2021/12/10 05:44:11;;;;;;;2.17;1.30;;;18.00;99.90;;;;;;4197032;28;20227;-71
2021/12/10 05:46:16;;;;;;;1.55;1.20;;;17.90;99.90;;;;;;4196712;28;20241;-71
2021/12/10 05:48:19;;;;;;;2.78;1.50;;;18.00;99.90;;;;;;4196566;28;20219;-72
2021/12/10 05:50:25;;;;;;;1.88;1.15;;;18.00;99.90;;;;;;4195763;28;20223;-71
2021/12/10 05:52:27;;;;;;;1.60;1.00;;;18.00;99.90;;;;;;4196691;28;20219;-71
2021/12/10 05:54:30;;;;;;;2.42;1.30;;;17.90;99.90;;;;;;4197083;28;20223;-71
2021/12/10 05:56:34;;;;;;;1.70;1.20;;;17.80;99.90;;;;;;4195656;28;20223;-71
2021/12/10 05:58:38;;;;;;;2.03;1.17;;;17.70;99.90;;;;;;4196215;28;20243;-71
2021/12/10 06:00:43;;;;;;;3.45;1.48;;;17.70;99.90;;;;;;4196088;28;20272;-71
2021/12/10 06:02:45;;;;;;;2.10;0.90;;;17.80;99.90;;;;;;4196140;28;20226;-71
2021/12/10 06:04:48;;;;;;;1.20;0.95;;;17.90;99.90;;;;;;4196787;28;20214;-71
2021/12/10 06:06:50;;;;;;;1.55;1.10;;;17.90;99.90;;;;;;4194537;28;20227;-71
2021/12/10 06:08:53;;;;;;;2.72;1.20;;;18.00;99.90;;;;;;4196418;28;20215;-71
2021/12/10 06:10:57;;;;;;;2.13;1.00;;;18.00;99.90;;;;;;4193573;28;20223;-72
2021/12/10 06:13:01;;;;;;;1.42;0.85;;;18.10;99.90;;;;;;4195984;28;20237;-71
2021/12/10 06:15:04;;;;;;;1.50;1.08;;;18.10;99.90;;;;;;4196519;28;20281;-71
2021/12/10 06:17:06;;;;;;;1.20;1.05;;;18.10;99.90;;;;;;4195971;28;20219;-72
2021/12/10 06:19:09;;;;;;;2.15;1.13;;;18.20;99.90;;;;;;4193533;28;20257;-71
2021/12/10 06:21:12;;;;;;;2.63;1.20;;;18.20;99.90;;;;;;4196247;28;20231;-71
2021/12/10 06:23:15;;;;;;;2.05;0.70;;;18.20;99.90;;;;;;4191337;28;20616;-72
2021/12/10 06:25:18;;;;;;;1.55;0.90;;;18.20;99.90;;;;;;4196200;28;20626;-71
2021/12/10 06:27:20;;;;;;;1.17;0.70;;;18.30;99.90;;;;;;4195897;28;20316;-71
2021/12/10 06:29:25;;;;;;;1.58;1.20;;;18.20;99.90;;;;;;4195645;28;20234;-72
2021/12/10 06:31:29;;;;;;;1.98;1.15;;;18.20;99.90;;;;;;4196187;28;20218;-71
2021/12/10 06:33:32;;;;;;;1.67;1.10;;;18.30;99.90;;;;;;4195570;28;20648;-71
2021/12/10 06:35:36;;;;;;;1.52;1.10;;;18.30;99.90;;;;;;4196123;28;20219;-71
2021/12/10 06:37:40;;;;;;;1.45;0.90;;;18.30;99.90;;;;;;4195570;28;20241;-71
2021/12/10 06:39:43;;;;;;;1.15;0.93;;;18.30;99.90;;;;;;4191852;28;20239;-71
2021/12/10 06:41:45;;;;;;;1.98;1.10;;;18.30;99.90;;;;;;4196221;28;20273;-71
2021/12/10 06:43:48;;;;;;;1.52;1.00;;;18.30;99.90;;;;;;4195195;28;20272;-71
2021/12/10 06:45:52;;;;;;;0.95;0.80;;;18.30;99.90;;;;;;4195843;28;20620;-71
2021/12/10 06:47:58;;;;;;;1.80;0.95;;;18.30;99.90;;;;;;4194840;28;20227;-71
2021/12/10 06:50:01;;;;;;;1.05;0.73;;;18.30;99.90;;;;;;4194439;28;20660;-71
2021/12/10 06:52:03;;;;;;;1.40;0.80;;;18.30;99.90;;;;;;4195241;28;20207;-71
2021/12/10 06:54:06;;;;;;;2.03;0.90;;;18.40;99.90;;;;;;4195227;28;20571;-71
2021/12/10 06:56:09;;;;;;;1.45;0.98;;;18.40;99.90;;;;;;4191994;28;20223;-71
2021/12/10 06:58:11;;;;;;;1.50;0.90;;;18.40;99.90;;;;;;4194632;28;20231;-71
2021/12/10 07:00:18;;;;;;;1.30;0.80;;;18.40;99.90;;;;;;4194987;28;20261;-72
2021/12/10 07:02:22;;;;;;;1.50;0.77;;;18.40;99.90;;;;;;4195221;28;20272;-72
2021/12/10 07:04:24;;;;;;;1.27;0.88;;;18.40;99.90;;;;;;4194453;28;20276;-71
2021/12/10 07:06:29;;;;;;;1.15;0.63;;;18.40;99.90;;;;;;4194745;28;20219;-72
2021/12/10 07:08:42;;;;;;;1.38;0.90;;;18.40;99.90;;;;;;4194099;28;20226;-71
2021/12/10 07:10:45;;;;;;;1.27;0.93;;;18.40;99.90;;;;;;4191312;28;20741;-71
2021/12/10 07:12:48;;;;;;;1.15;0.50;;;18.40;99.90;;;;;;4194873;28;20284;-72
2021/12/10 07:14:50;;;;;;;1.30;0.88;;;18.40;99.90;;;;;;4193530;28;20231;-71
2021/12/10 07:16:53;;;;;;;1.23;0.60;;;18.40;99.90;;;;;;4194419;28;20223;-71
2021/12/10 07:18:59;;;;;;;1.75;0.90;;;18.50;99.90;;;;;;4188617;28;20380;-71
2021/12/10 07:21:02;;;;;;;2.00;0.98;;;18.50;99.90;;;;;;4192153;28;20749;-72
2021/12/10 07:23:04;;;;;;;0.95;0.70;;;18.50;99.90;;;;;;4195300;28;20223;-71
2021/12/10 07:25:08;;;;;;;1.17;0.77;;;18.50;99.90;;;;;;4194032;28;20300;-71
2021/12/10 07:27:11;;;;;;;1.52;1.05;;;18.50;99.90;;;;;;4194843;28;20280;-71
2021/12/10 07:29:14;;;;;;;1.13;0.80;;;18.50;99.90;;;;;;4195010;28;20281;-71
2021/12/10 07:31:17;;;;;;;1.17;0.60;;;18.50;99.90;;;;;;4193570;28;20276;-71
2021/12/10 07:33:19;;;;;;;1.33;0.90;;;18.50;99.90;;;;;;4194817;28;20619;-71
2021/12/10 07:35:24;;;;;;;0.70;0.63;;;18.50;99.90;;;;;;4194415;28;21060;-72
2021/12/10 07:37:26;;;;;;;1.05;0.82;;;18.50;99.90;;;;;;4194706;28;20658;-72
2021/12/10 07:39:29;;;;;;;1.40;0.80;;;18.50;99.90;;;;;;4195177;28;20284;-71
2021/12/10 07:41:32;;;;;;;1.45;0.73;;;18.50;99.90;;;;;;4194745;28;20237;-71
2021/12/10 07:43:35;;;;;;;2.90;0.73;;;18.50;99.90;;;;;;4195211;28;20651;-71
2021/12/10 07:45:38;;;;;;;1.77;0.80;;;18.50;99.90;;;;;;4194395;28;20219;-71
2021/12/10 07:47:41;;;;;;;1.95;0.88;;;18.40;99.90;;;;;;4186083;28;20668;-71
2021/12/10 07:49:45;;;;;;;1.10;0.75;;;18.50;99.90;;;;;;4190446;28;20277;-71
2021/12/10 07:51:50;;;;;;;4.60;0.80;;;18.60;99.90;;;;;;4184025;28;20284;-71
2021/12/10 07:53:54;;;;;;;2.17;0.65;;;18.50;99.90;;;;;;4190014;28;20683;-72
2021/12/10 07:55:58;;;;;;;2.55;0.80;;;18.60;99.90;;;;;;4189261;28;20219;-72
2021/12/10 07:58:03;;;;;;;2.65;0.68;;;18.50;99.90;;;;;;4190113;28;20280;-73
2021/12/10 08:00:09;;;;;;;4.18;0.82;;;18.60;99.90;;;;;;4190937;28;20313;-71
2021/12/10 08:02:11;;;;;;;1.20;0.80;;;18.60;99.90;;;;;;4191383;28;20218;-72
2021/12/10 08:04:14;;;;;;;4.85;1.02;;;18.70;99.90;;;;;;4192694;28;20219;-72
2021/12/10 08:06:18;;;;;;;2.03;0.90;;;18.70;99.90;;;;;;4191279;28;20608;-73
2021/12/10 08:08:21;;;;;;;2.03;0.70;;;18.70;99.90;;;;;;4189926;28;20276;-73
2021/12/10 08:10:24;;;;;;;9.38;1.20;;;18.70;99.90;;;;;;4188575;28;20980;-73
2021/12/10 08:12:27;;;;;;;1.88;0.75;;;18.80;99.90;;;;;;4192884;28;20219;-71
2021/12/10 08:14:29;;;;;;;2.80;0.90;;;18.80;99.90;;;;;;4190376;28;20265;-71
2021/12/10 08:16:31;;;;;;;1.23;0.60;;;19.00;99.90;;;;;;4193113;28;20261;-71
2021/12/10 08:18:34;;;;;;;2.72;0.50;;;19.00;99.90;;;;;;4191695;28;20642;-71
2021/12/10 08:20:36;;;;;;;0.98;0.60;;;19.10;99.90;;;;;;4192095;28;21299;-71
2021/12/10 08:22:39;;;;;;;1.73;0.60;;;19.20;99.90;;;;;;4179902;28;20211;-71
2021/12/10 08:24:42;;;;;;;2.13;0.90;;;19.30;99.90;;;;;;4183005;28;20262;-70
2021/12/10 08:26:45;;;;;;;2.25;0.55;;;19.40;99.90;;;;;;4191706;28;21065;-71
2021/12/10 08:28:48;;;;;;;1.73;0.77;;;19.50;99.90;;;;;;4191081;28;20223;-71
2021/12/10 08:30:52;;;;;;;1.00;0.70;;;19.50;99.90;;;;;;4188173;28;20974;-71
2021/12/10 08:32:56;;;;;;;4.22;0.80;;;19.50;99.90;;;;;;4190356;28;21676;-72
2021/12/10 08:34:59;;;;;;;0.93;0.70;;;19.50;99.90;;;;;;4190438;28;20640;-71
2021/12/10 08:37:01;;;;;;;0.68;0.60;;;19.60;99.90;;;;;;4191402;28;20634;-72
2021/12/10 08:39:06;;;;;;;0.65;0.50;;;19.70;99.90;;;;;;4185485;28;20249;-70
2021/12/10 08:41:12;;;;;;;1.48;0.70;;;19.70;99.90;;;;;;4190083;28;20267;-71
2021/12/10 08:43:14;;;;;;;2.15;0.70;;;19.80;99.90;;;;;;4186715;28;20224;-71
2021/12/10 08:45:18;;;;;;;1.35;0.60;;;19.90;99.90;;;;;;4191769;28;20215;-71
2021/12/10 08:47:21;;;;;;;4.88;0.80;;;20.00;99.90;;;;;;4190858;28;20260;-71
2021/12/10 08:49:23;;;;;;;1.23;0.75;;;19.90;99.90;;;;;;4194792;28;20231;-72
2021/12/10 08:51:29;;;;;;;1.58;0.88;;;20.00;99.90;;;;;;4193689;28;20203;-71
2021/12/10 08:53:32;;;;;;;1.35;0.75;;;20.00;99.90;;;;;;4187303;28;20216;-71
2021/12/10 08:55:37;;;;;;;2.80;0.85;;;20.10;99.90;;;;;;4189957;28;20272;-71
2021/12/10 08:57:40;;;;;;;1.33;0.70;;;20.10;99.90;;;;;;4193879;28;20220;-72
2021/12/10 08:59:43;;;;;;;1.27;0.57;;;20.10;99.90;;;;;;4194862;28;20222;-72
2021/12/10 09:01:49;;;;;;;1.42;0.57;;;20.10;99.90;;;;;;4194373;28;20649;-72
2021/12/10 09:03:54;;;;;;;0.73;0.65;;;20.10;99.90;;;;;;4191629;28;20680;-71
2021/12/10 09:05:57;;;;;;;1.25;0.70;;;20.30;99.90;;;;;;4193433;28;20223;-74
2021/12/10 09:07:59;;;;;;;6.45;1.00;;;20.30;99.90;;;;;;4188275;28;20265;-74
2021/12/10 09:10:04;;;;;;;4.13;0.82;;;20.30;99.90;;;;;;4188221;28;20212;-74
2021/12/10 09:12:11;;;;;;;1.05;0.70;;;20.30;99.90;;;;;;4190263;28;20331;-74
2021/12/10 09:14:17;;;;;;;3.83;0.75;;;20.30;99.90;;;;;;4192018;28;20309;-74
2021/12/10 09:16:25;;;;;;;1.67;1.00;;;20.30;99.90;;;;;;4192050;28;20207;-74
2021/12/10 09:18:28;;;;;;;6.68;0.98;;;20.40;99.90;;;;;;4190525;28;20625;-77
2021/12/10 09:20:35;;;;;;;3.28;0.85;;;20.40;99.90;;;;;;4193160;28;20238;-75
2021/12/10 09:22:37;;;;;;;0.80;0.60;;;20.40;99.90;;;;;;4192369;28;20930;-76
2021/12/10 09:24:41;;;;;;;3.22;0.82;;;20.40;99.90;;;;;;4184500;28;20211;-75
2021/12/10 09:26:46;;;;;;;1.98;0.70;;;20.40;99.90;;;;;;4189555;28;20219;-78
2021/12/10 09:28:48;;;;;;;3.25;0.68;;;20.40;99.90;;;;;;4191368;28;20219;-75
2021/12/10 09:30:54;;;;;;;0.70;0.65;;;20.30;99.90;;;;;;4183594;28;21622;-76
2021/12/10 09:32:57;;;;;;;1.27;0.60;;;20.40;99.90;;;;;;4188699;28;20215;-77
2021/12/10 09:35:05;;;;;;;1.38;0.60;;;20.50;99.90;;;;;;4193048;28;20351;-76
2021/12/10 09:37:09;;;;;;;3.25;0.80;;;20.60;99.90;;;;;;4194924;28;20423;-76
2021/12/10 09:39:13;;;;;;;1.30;0.73;;;20.60;99.90;;;;;;4187476;28;20942;-75
2021/12/10 09:41:16;;;;;;;0.85;0.63;;;20.60;99.90;;;;;;4189554;28;20638;-77
2021/12/10 09:43:18;;;;;;;1.95;0.80;;;20.60;99.90;;;;;;4195699;28;20219;-75
2021/12/10 09:45:23;;;;;;;1.42;0.90;;;20.60;99.90;;;;;;4193756;28;20627;-75
2021/12/10 09:47:29;;;;;;;2.28;0.80;;;20.60;99.90;;;;;;4193618;28;20260;-74
2021/12/10 09:49:31;;;;;;;2.15;0.93;;;20.70;99.90;;;;;;4194949;28;20266;-76
2021/12/10 09:51:39;;;;;;;1.85;0.70;;;20.70;99.90;;;;;;4191871;28;20280;-77
2021/12/10 09:53:45;;;;;;;0.85;0.70;;;20.60;99.90;;;;;;4194939;28;20683;-77
2021/12/10 09:55:51;;;;;;;4.55;0.93;;;20.80;99.90;;;;;;4194185;28;20261;-75
2021/12/10 09:57:56;;;;;;;0.80;0.65;;;20.70;99.90;;;;;;4194776;28;20219;-75
2021/12/10 10:00:01;;;;;;;4.30;0.68;;;20.70;99.90;;;;;;4189063;28;20231;-75
2021/12/10 10:02:04;;;;;;;1.17;0.80;;;20.70;99.90;;;;;;4193771;28;20292;-75
2021/12/10 10:04:10;;;;;;;1.30;0.73;;;20.70;99.90;;;;;;4193206;28;20277;-75
2021/12/10 10:06:14;;;;;;;3.00;0.80;;;20.80;99.90;;;;;;4194097;28;20223;-76
2021/12/10 10:08:21;;;;;;;0.98;0.85;;;20.80;99.90;;;;;;4190799;28;20211;-75
2021/12/10 10:10:24;;;;;;;2.65;0.80;;;20.90;99.90;;;;;;4192828;28;20215;-74
2021/12/10 10:12:31;;;;;;;1.05;0.65;;;20.90;99.90;;;;;;4190955;28;20257;-77
2021/12/10 10:14:34;;;;;;;1.40;0.82;;;20.90;99.90;;;;;;4190623;28;20268;-78
2021/12/10 10:16:43;;;;;;;3.28;1.05;;;20.90;99.90;;;;;;4192763;28;20245;-75
2021/12/10 10:18:48;;;;;;;1.80;0.68;;;20.90;99.90;;;;;;4187473;28;20219;-76
2021/12/10 10:20:56;;;;;;;1.30;0.70;;;20.90;99.90;;;;;;4187163;28;20243;-76
2021/12/10 10:22:59;;;;;;;12.30;1.50;;;21.00;99.90;;;;;;4188736;28;20241;-77
2021/12/10 10:25:03;;;;;;;11.32;1.20;;;21.00;99.90;;;;;;4190240;28;20215;-75
2021/12/10 10:27:09;;;;;;;10.82;1.45;;;21.10;99.90;;;;;;4194149;28;20219;-77
2021/12/10 10:29:19;;;;;;;16.33;1.40;;;21.10;99.90;;;;;;4189887;28;20300;-76
2021/12/10 10:31:24;;;;;;;3.45;1.02;;;21.10;99.90;;;;;;4189540;28;20211;-77
2021/12/10 10:33:27;;;;;;;3.70;0.73;;;21.00;99.90;;;;;;4192180;28;20651;-75
2021/12/10 10:35:35;;;;;;;4.70;0.90;;;21.00;99.90;;;;;;4190826;28;20223;-75
2021/12/10 10:37:38;;;;;;;1.40;0.60;;;21.20;99.90;;;;;;4193570;28;20218;-75
2021/12/10 10:39:43;;;;;;;1.50;0.70;;;21.20;99.90;;;;;;4187717;28;20218;-75
2021/12/10 10:41:48;;;;;;;2.35;0.70;;;21.10;99.90;;;;;;4193354;28;20296;-76
2021/12/10 10:43:51;;;;;;;1.05;0.70;;;21.10;99.90;;;;;;4187051;28;20223;-76
2021/12/10 10:45:55;;;;;;;2.90;0.80;;;21.10;99.90;;;;;;4192877;28;20276;-76
2021/12/10 10:47:59;;;;;;;2.13;0.88;;;21.20;99.90;;;;;;4189968;28;20220;-76
2021/12/10 10:50:11;;;;;;;0.95;0.70;;;21.10;99.90;;;;;;4186661;28;20271;-77
2021/12/10 10:52:21;;;;;;;0.85;0.80;;;21.20;99.90;;;;;;4192443;28;20218;-76